Gambier, Ohio
Current Conditions -  °F | °C
As of 9:56 AM on Wednesday 22 Oct 2014 (Local Time) from K4I3 Reporting Station
Drizzle Drizzle  
Wind Chill: 40°   Ceiling: 500
Heat Index: 45°   Visibility: 3mi
Dew Point: 45°   Wind: 9mph
Humidity: 100%   Direction: 330°NNW
Pressure: 30.23"   Gusts: NA
Location:  40.38°N, 82.4°W
Report Text: K4I3 221356Z AUTO 33008KT 3SM DZ OVC005 07/07 A3023 RMK AO2
Loading
Personal Weather Stations






























Interactive Weather Map
Tropical Storm Tracking
New forecast layout! Learn more

10-Day Weather Forecast

Advertisements
Track Severe Weather on mobile